createdAt,value
2023-11-06T00:12:09.986Z,19.70
2023-11-06T00:27:11.764Z,19.67
2023-11-06T00:42:14.505Z,19.64
2023-11-06T00:57:17.181Z,19.66
2023-11-06T01:12:18.887Z,19.67
2023-11-06T01:27:21.404Z,19.68
2023-11-06T01:42:24.038Z,19.70
2023-11-06T01:57:27.772Z,19.73
2023-11-06T02:12:29.488Z,19.74
2023-11-06T02:27:31.980Z,19.75
2023-11-06T02:42:37.736Z,19.75
2023-11-06T02:57:40.382Z,19.75
2023-11-06T03:12:43.531Z,19.76
2023-11-06T03:27:46.086Z,19.76
2023-11-06T03:42:47.761Z,19.76
2023-11-06T03:57:49.468Z,19.76
2023-11-06T04:12:51.979Z,19.76
2023-11-06T04:27:54.570Z,19.76
2023-11-06T04:42:57.245Z,19.77
2023-11-06T04:57:59.869Z,19.79
2023-11-06T05:13:02.367Z,19.82
2023-11-06T05:28:04.884Z,19.81
2023-11-06T05:43:07.424Z,19.86
2023-11-06T05:58:10.056Z,20.01
2023-11-06T06:13:12.665Z,20.04
2023-11-06T06:28:15.266Z,20.04
2023-11-06T06:43:20.591Z,20.02
2023-11-06T06:58:23.163Z,19.97
2023-11-06T07:13:25.994Z,20.01
2023-11-06T07:28:29.514Z,20.03
2023-11-06T07:43:31.425Z,20.06
2023-11-06T07:58:34.697Z,20.07
2023-11-06T08:13:37.305Z,20.06
2023-11-06T08:28:39.863Z,20.11
2023-11-06T08:43:42.551Z,20.12
2023-11-06T08:58:45.142Z,20.12
2023-11-06T09:13:46.833Z,20.13
2023-11-06T09:28:49.652Z,20.15
2023-11-06T09:43:52.226Z,20.18
2023-11-06T09:58:55.252Z,20.17
2023-11-06T10:13:58.667Z,20.16
2023-11-06T10:29:14.465Z,20.16
2023-11-06T10:44:17.855Z,20.17
2023-11-06T10:59:21.223Z,20.18
2023-11-06T11:14:23.163Z,20.19
2023-11-06T11:29:54.093Z,20.19
2023-11-06T11:45:06.925Z,20.19
2023-11-06T12:00:24.002Z,20.22
2023-11-06T12:15:32.731Z,20.22
2023-11-06T12:30:36.820Z,20.24
2023-11-06T12:45:40.640Z,20.25
2023-11-06T13:00:43.334Z,20.25
2023-11-06T13:15:45.260Z,20.25
2023-11-06T13:30:47.123Z,20.24
2023-11-06T13:45:49.720Z,20.25
2023-11-06T14:00:52.230Z,20.30
2023-11-06T14:15:55.210Z,20.27
2023-11-06T14:30:58.096Z,20.27
2023-11-06T14:46:00.790Z,20.26
2023-11-06T15:01:03.282Z,20.26
2023-11-06T15:16:05.227Z,20.26
2023-11-06T15:31:07.879Z,20.25
2023-11-06T15:46:14.396Z,20.36
2023-11-06T16:01:22.438Z,20.29
2023-11-06T16:16:26.820Z,20.28
2023-11-06T16:31:43.458Z,20.27
2023-11-06T16:46:45.992Z,20.28
2023-11-06T17:01:48.513Z,20.38
2023-11-06T17:16:51.269Z,20.42
2023-11-06T17:31:54.765Z,20.47
2023-11-06T17:46:56.498Z,20.43
2023-11-06T18:01:59.468Z,20.40
2023-11-06T18:17:02.299Z,20.39
2023-11-06T18:32:05.257Z,20.38
2023-11-06T18:47:07.418Z,20.36
2023-11-06T19:02:12.323Z,20.36
2023-11-06T19:17:15.373Z,20.34
2023-11-06T19:32:19.099Z,20.33
2023-11-06T19:47:22.609Z,20.33
2023-11-06T20:02:26.798Z,20.31
2023-11-06T20:17:29.519Z,20.29
2023-11-06T20:32:33.106Z,20.27
2023-11-06T20:47:40.819Z,20.23
2023-11-06T21:02:42.910Z,20.19
2023-11-06T21:17:45.066Z,20.16
2023-11-06T21:32:48.152Z,20.09
2023-11-06T21:47:50.077Z,20.06
2023-11-06T22:02:51.940Z,20.02
2023-11-06T22:17:54.649Z,19.96
2023-11-06T22:32:57.400Z,19.90
2023-11-06T22:48:00.168Z,19.85
2023-11-06T23:03:02.881Z,19.77
2023-11-06T23:18:06.435Z,19.71
2023-11-06T23:33:09.602Z,19.68
2023-11-06T23:48:12.319Z,19.64
